sensor_id;sensor_type;location;lat;lon;timestamp;temperature;humidity
21676;DHT22;10999;51.332;9.458;2023-04-25T00:01:29;4.40;84.10
21676;DHT22;10999;51.332;9.458;2023-04-25T00:03:55;4.40;84.20
21676;DHT22;10999;51.332;9.458;2023-04-25T00:06:24;4.40;84.30
21676;DHT22;10999;51.332;9.458;2023-04-25T00:08:52;4.30;84.80
21676;DHT22;10999;51.332;9.458;2023-04-25T00:11:19;4.30;84.60
21676;DHT22;10999;51.332;9.458;2023-04-25T00:13:46;4.20;84.80
21676;DHT22;10999;51.332;9.458;2023-04-25T00:16:16;4.20;85.40
21676;DHT22;10999;51.332;9.458;2023-04-25T00:18:43;4.20;85.60
21676;DHT22;10999;51.332;9.458;2023-04-25T00:21:12;4.20;85.40
21676;DHT22;10999;51.332;9.458;2023-04-25T00:23:39;4.20;85.40
21676;DHT22;10999;51.332;9.458;2023-04-25T00:26:06;4.20;85.40
21676;DHT22;10999;51.332;9.458;2023-04-25T00:28:32;4.10;85.50
21676;DHT22;10999;51.332;9.458;2023-04-25T00:30:59;4.10;86.20
21676;DHT22;10999;51.332;9.458;2023-04-25T00:33:26;4.10;86.50
21676;DHT22;10999;51.332;9.458;2023-04-25T00:35:53;4.10;86.60
21676;DHT22;10999;51.332;9.458;2023-04-25T00:38:19;4.10;86.90
21676;DHT22;10999;51.332;9.458;2023-04-25T00:40:46;4.10;86.80
21676;DHT22;10999;51.332;9.458;2023-04-25T00:43:13;4.10;86.80
21676;DHT22;10999;51.332;9.458;2023-04-25T00:45:40;4.00;87.40
21676;DHT22;10999;51.332;9.458;2023-04-25T00:48:06;4.00;86.80
21676;DHT22;10999;51.332;9.458;2023-04-25T00:50:34;4.00;87.20
21676;DHT22;10999;51.332;9.458;2023-04-25T00:53:02;3.90;87.70
21676;DHT22;10999;51.332;9.458;2023-04-25T00:55:30;3.90;87.90
21676;DHT22;10999;51.332;9.458;2023-04-25T00:57:58;3.90;88.80
21676;DHT22;10999;51.332;9.458;2023-04-25T01:00:24;3.90;89.60
21676;DHT22;10999;51.332;9.458;2023-04-25T01:02:52;4.00;90.30
21676;DHT22;10999;51.332;9.458;2023-04-25T01:05:18;4.00;90.00
21676;DHT22;10999;51.332;9.458;2023-04-25T01:07:45;4.00;89.80
21676;DHT22;10999;51.332;9.458;2023-04-25T01:10:12;4.10;89.60
21676;DHT22;10999;51.332;9.458;2023-04-25T01:12:39;4.00;89.30
21676;DHT22;10999;51.332;9.458;2023-04-25T01:15:06;4.00;89.10
21676;DHT22;10999;51.332;9.458;2023-04-25T01:17:34;4.00;89.10
21676;DHT22;10999;51.332;9.458;2023-04-25T01:20:04;4.00;88.90
21676;DHT22;10999;51.332;9.458;2023-04-25T01:22:32;4.00;89.20
21676;DHT22;10999;51.332;9.458;2023-04-25T01:24:59;4.00;89.50
21676;DHT22;10999;51.332;9.458;2023-04-25T01:27:27;4.10;89.70
21676;DHT22;10999;51.332;9.458;2023-04-25T01:29:54;4.10;89.50
21676;DHT22;10999;51.332;9.458;2023-04-25T01:32:23;4.10;89.40
21676;DHT22;10999;51.332;9.458;2023-04-25T01:34:50;4.20;89.40
21676;DHT22;10999;51.332;9.458;2023-04-25T01:37:17;4.20;89.90
21676;DHT22;10999;51.332;9.458;2023-04-25T01:39:44;4.20;88.80
21676;DHT22;10999;51.332;9.458;2023-04-25T01:42:11;4.20;88.30
21676;DHT22;10999;51.332;9.458;2023-04-25T01:44:39;4.20;88.00
21676;DHT22;10999;51.332;9.458;2023-04-25T01:47:05;4.10;87.70
21676;DHT22;10999;51.332;9.458;2023-04-25T01:49:32;4.10;87.90
21676;DHT22;10999;51.332;9.458;2023-04-25T01:51:59;4.20;88.30
21676;DHT22;10999;51.332;9.458;2023-04-25T01:54:26;4.20;88.10
21676;DHT22;10999;51.332;9.458;2023-04-25T01:56:52;4.30;87.90
21676;DHT22;10999;51.332;9.458;2023-04-25T01:59:19;4.30;87.50
21676;DHT22;10999;51.332;9.458;2023-04-25T02:01:49;4.20;87.20
21676;DHT22;10999;51.332;9.458;2023-04-25T02:04:16;4.20;86.80
21676;DHT22;10999;51.332;9.458;2023-04-25T02:06:43;4.10;86.80
21676;DHT22;10999;51.332;9.458;2023-04-25T02:09:09;4.10;88.30
21676;DHT22;10999;51.332;9.458;2023-04-25T02:11:36;4.10;88.20
21676;DHT22;10999;51.332;9.458;2023-04-25T02:14:03;4.10;87.80
21676;DHT22;10999;51.332;9.458;2023-04-25T02:16:29;4.10;88.10
21676;DHT22;10999;51.332;9.458;2023-04-25T02:18:57;4.20;88.30
21676;DHT22;10999;51.332;9.458;2023-04-25T02:21:23;4.20;87.80
21676;DHT22;10999;51.332;9.458;2023-04-25T02:23:50;4.30;87.70
21676;DHT22;10999;51.332;9.458;2023-04-25T02:26:18;4.30;87.40
21676;DHT22;10999;51.332;9.458;2023-04-25T02:28:45;4.40;87.20
21676;DHT22;10999;51.332;9.458;2023-04-25T02:31:12;4.40;86.80
21676;DHT22;10999;51.332;9.458;2023-04-25T02:33:38;4.50;85.80
21676;DHT22;10999;51.332;9.458;2023-04-25T02:36:05;4.50;85.50
21676;DHT22;10999;51.332;9.458;2023-04-25T02:38:32;4.50;85.10
21676;DHT22;10999;51.332;9.458;2023-04-25T02:40:59;4.40;85.00
21676;DHT22;10999;51.332;9.458;2023-04-25T02:43:25;4.40;85.20
21676;DHT22;10999;51.332;9.458;2023-04-25T02:45:52;4.40;85.40
21676;DHT22;10999;51.332;9.458;2023-04-25T02:48:19;4.30;85.80
21676;DHT22;10999;51.332;9.458;2023-04-25T02:50:46;4.30;86.50
21676;DHT22;10999;51.332;9.458;2023-04-25T02:53:12;4.30;87.20
21676;DHT22;10999;51.332;9.458;2023-04-25T02:55:39;4.40;87.50
21676;DHT22;10999;51.332;9.458;2023-04-25T02:58:06;4.50;87.10
21676;DHT22;10999;51.332;9.458;2023-04-25T03:00:32;4.60;86.20
21676;DHT22;10999;51.332;9.458;2023-04-25T03:02:59;4.60;85.60
21676;DHT22;10999;51.332;9.458;2023-04-25T03:05:26;4.70;86.10
21676;DHT22;10999;51.332;9.458;2023-04-25T03:07:53;4.80;86.10
21676;DHT22;10999;51.332;9.458;2023-04-25T03:10:19;4.80;87.10
21676;DHT22;10999;51.332;9.458;2023-04-25T03:12:46;4.80;86.40
21676;DHT22;10999;51.332;9.458;2023-04-25T03:15:13;4.80;86.80
21676;DHT22;10999;51.332;9.458;2023-04-25T03:17:39;4.80;86.50
21676;DHT22;10999;51.332;9.458;2023-04-25T03:20:07;4.80;86.40
21676;DHT22;10999;51.332;9.458;2023-04-25T03:22:34;4.80;86.50
21676;DHT22;10999;51.332;9.458;2023-04-25T03:25:01;4.90;86.10
21676;DHT22;10999;51.332;9.458;2023-04-25T03:27:28;4.90;86.00
21676;DHT22;10999;51.332;9.458;2023-04-25T03:29:55;4.90;85.30
21676;DHT22;10999;51.332;9.458;2023-04-25T03:32:21;4.90;85.30
21676;DHT22;10999;51.332;9.458;2023-04-25T03:34:48;5.00;84.90
21676;DHT22;10999;51.332;9.458;2023-04-25T03:37:15;5.00;85.00
21676;DHT22;10999;51.332;9.458;2023-04-25T03:39:41;5.00;85.20
21676;DHT22;10999;51.332;9.458;2023-04-25T03:42:08;5.00;85.20
21676;DHT22;10999;51.332;9.458;2023-04-25T03:44:35;5.00;84.60
21676;DHT22;10999;51.332;9.458;2023-04-25T03:47:02;5.10;84.20
21676;DHT22;10999;51.332;9.458;2023-04-25T03:49:29;5.10;84.20
21676;DHT22;10999;51.332;9.458;2023-04-25T03:51:55;5.20;82.60
21676;DHT22;10999;51.332;9.458;2023-04-25T03:54:22;5.20;81.90
21676;DHT22;10999;51.332;9.458;2023-04-25T03:56:49;5.30;82.60
21676;DHT22;10999;51.332;9.458;2023-04-25T03:59:15;5.20;82.50
21676;DHT22;10999;51.332;9.458;2023-04-25T04:01:42;5.30;82.80
21676;DHT22;10999;51.332;9.458;2023-04-25T04:04:09;5.30;82.30
21676;DHT22;10999;51.332;9.458;2023-04-25T04:06:36;5.30;82.60
21676;DHT22;10999;51.332;9.458;2023-04-25T04:09:03;5.30;82.90
21676;DHT22;10999;51.332;9.458;2023-04-25T04:11:29;5.40;82.90
21676;DHT22;10999;51.332;9.458;2023-04-25T04:13:57;5.40;82.80
21676;DHT22;10999;51.332;9.458;2023-04-25T04:16:24;5.30;82.90
21676;DHT22;10999;51.332;9.458;2023-04-25T04:18:51;5.40;83.10
21676;DHT22;10999;51.332;9.458;2023-04-25T04:21:18;5.40;83.40
21676;DHT22;10999;51.332;9.458;2023-04-25T04:23:44;5.40;83.60
21676;DHT22;10999;51.332;9.458;2023-04-25T04:26:13;5.40;83.40
21676;DHT22;10999;51.332;9.458;2023-04-25T04:28:42;5.40;83.60
21676;DHT22;10999;51.332;9.458;2023-04-25T04:31:10;5.50;84.20
21676;DHT22;10999;51.332;9.458;2023-04-25T04:33:38;5.50;83.60
21676;DHT22;10999;51.332;9.458;2023-04-25T04:36:05;5.50;82.20
21676;DHT22;10999;51.332;9.458;2023-04-25T04:38:34;5.60;81.60
21676;DHT22;10999;51.332;9.458;2023-04-25T04:41:01;5.60;81.80
21676;DHT22;10999;51.332;9.458;2023-04-25T04:43:27;5.60;82.20
21676;DHT22;10999;51.332;9.458;2023-04-25T04:45:55;5.70;82.00
21676;DHT22;10999;51.332;9.458;2023-04-25T04:48:25;5.70;81.70
21676;DHT22;10999;51.332;9.458;2023-04-25T04:50:51;5.60;82.60
21676;DHT22;10999;51.332;9.458;2023-04-25T04:53:18;5.70;83.00
21676;DHT22;10999;51.332;9.458;2023-04-25T04:55:45;5.70;84.50
21676;DHT22;10999;51.332;9.458;2023-04-25T04:58:12;5.70;84.60
21676;DHT22;10999;51.332;9.458;2023-04-25T05:00:39;5.80;84.40
21676;DHT22;10999;51.332;9.458;2023-04-25T05:03:06;5.90;84.40
21676;DHT22;10999;51.332;9.458;2023-04-25T05:05:33;5.90;84.60
21676;DHT22;10999;51.332;9.458;2023-04-25T05:08:00;6.00;85.10
21676;DHT22;10999;51.332;9.458;2023-04-25T05:10:26;6.10;85.90
21676;DHT22;10999;51.332;9.458;2023-04-25T05:12:53;6.10;85.30
21676;DHT22;10999;51.332;9.458;2023-04-25T05:15:20;6.20;85.10
21676;DHT22;10999;51.332;9.458;2023-04-25T05:17:47;6.20;86.10
21676;DHT22;10999;51.332;9.458;2023-04-25T05:20:15;6.20;86.60
21676;DHT22;10999;51.332;9.458;2023-04-25T05:22:45;6.20;87.00
21676;DHT22;10999;51.332;9.458;2023-04-25T05:25:12;6.20;87.20
21676;DHT22;10999;51.332;9.458;2023-04-25T05:27:38;6.20;87.80
21676;DHT22;10999;51.332;9.458;2023-04-25T05:30:05;6.20;87.00
21676;DHT22;10999;51.332;9.458;2023-04-25T05:32:33;6.20;87.50
21676;DHT22;10999;51.332;9.458;2023-04-25T05:35:00;6.20;88.10
21676;DHT22;10999;51.332;9.458;2023-04-25T05:37:26;6.20;89.10
21676;DHT22;10999;51.332;9.458;2023-04-25T05:39:53;6.10;88.90
21676;DHT22;10999;51.332;9.458;2023-04-25T05:42:20;6.10;89.20
21676;DHT22;10999;51.332;9.458;2023-04-25T05:44:47;6.10;89.20
21676;DHT22;10999;51.332;9.458;2023-04-25T05:47:13;6.10;89.30
21676;DHT22;10999;51.332;9.458;2023-04-25T05:49:40;6.10;89.30
21676;DHT22;10999;51.332;9.458;2023-04-25T05:52:07;6.10;89.10
21676;DHT22;10999;51.332;9.458;2023-04-25T05:54:33;6.10;89.30
21676;DHT22;10999;51.332;9.458;2023-04-25T05:57:00;6.00;89.70
21676;DHT22;10999;51.332;9.458;2023-04-25T05:59:29;6.10;90.10
21676;DHT22;10999;51.332;9.458;2023-04-25T06:01:55;6.00;90.10
21676;DHT22;10999;51.332;9.458;2023-04-25T06:04:22;6.00;90.00
21676;DHT22;10999;51.332;9.458;2023-04-25T06:06:49;5.90;89.50
21676;DHT22;10999;51.332;9.458;2023-04-25T06:09:16;5.80;88.70
21676;DHT22;10999;51.332;9.458;2023-04-25T06:11:43;5.80;88.90
21676;DHT22;10999;51.332;9.458;2023-04-25T06:14:09;5.70;90.20
21676;DHT22;10999;51.332;9.458;2023-04-25T06:16:36;5.70;90.90
21676;DHT22;10999;51.332;9.458;2023-04-25T06:19:03;5.70;91.30
21676;DHT22;10999;51.332;9.458;2023-04-25T06:21:29;5.70;91.30
21676;DHT22;10999;51.332;9.458;2023-04-25T06:23:57;5.70;91.80
21676;DHT22;10999;51.332;9.458;2023-04-25T06:26:24;5.70;91.20
21676;DHT22;10999;51.332;9.458;2023-04-25T06:28:51;5.70;91.70
21676;DHT22;10999;51.332;9.458;2023-04-25T06:31:17;5.60;91.40
21676;DHT22;10999;51.332;9.458;2023-04-25T06:33:44;5.60;91.70
21676;DHT22;10999;51.332;9.458;2023-04-25T06:36:11;5.60;92.00
21676;DHT22;10999;51.332;9.458;2023-04-25T06:38:38;5.60;92.40
21676;DHT22;10999;51.332;9.458;2023-04-25T06:41:04;5.60;92.60
21676;DHT22;10999;51.332;9.458;2023-04-25T06:43:31;5.60;92.90
21676;DHT22;10999;51.332;9.458;2023-04-25T06:46:00;5.70;93.60
21676;DHT22;10999;51.332;9.458;2023-04-25T06:48:27;5.70;92.70
21676;DHT22;10999;51.332;9.458;2023-04-25T06:50:54;5.70;91.30
21676;DHT22;10999;51.332;9.458;2023-04-25T06:53:21;5.80;91.30
21676;DHT22;10999;51.332;9.458;2023-04-25T06:55:48;5.90;91.70
21676;DHT22;10999;51.332;9.458;2023-04-25T06:58:14;6.00;92.00
21676;DHT22;10999;51.332;9.458;2023-04-25T07:00:41;6.10;91.40
21676;DHT22;10999;51.332;9.458;2023-04-25T07:03:08;6.10;90.50
21676;DHT22;10999;51.332;9.458;2023-04-25T07:05:36;6.10;89.00
21676;DHT22;10999;51.332;9.458;2023-04-25T07:08:02;6.10;89.50
21676;DHT22;10999;51.332;9.458;2023-04-25T07:10:29;6.20;88.90
21676;DHT22;10999;51.332;9.458;2023-04-25T07:12:56;6.20;89.30
21676;DHT22;10999;51.332;9.458;2023-04-25T07:15:23;6.30;88.00
21676;DHT22;10999;51.332;9.458;2023-04-25T07:17:49;6.40;88.20
21676;DHT22;10999;51.332;9.458;2023-04-25T07:20:16;6.50;86.30
21676;DHT22;10999;51.332;9.458;2023-04-25T07:22:43;6.60;85.70
21676;DHT22;10999;51.332;9.458;2023-04-25T07:25:10;6.50;84.50
21676;DHT22;10999;51.332;9.458;2023-04-25T07:27:37;6.60;85.30
21676;DHT22;10999;51.332;9.458;2023-04-25T07:30:04;6.60;84.00
21676;DHT22;10999;51.332;9.458;2023-04-25T07:32:31;6.60;82.20
21676;DHT22;10999;51.332;9.458;2023-04-25T07:34:58;6.60;82.60
21676;DHT22;10999;51.332;9.458;2023-04-25T07:37:24;7.10;87.00
21676;DHT22;10999;51.332;9.458;2023-04-25T07:39:52;7.30;79.80
21676;DHT22;10999;51.332;9.458;2023-04-25T07:42:19;7.50;79.10
21676;DHT22;10999;51.332;9.458;2023-04-25T07:44:46;7.70;77.00
21676;DHT22;10999;51.332;9.458;2023-04-25T07:47:13;8.10;76.60
21676;DHT22;10999;51.332;9.458;2023-04-25T07:49:40;8.50;74.20
21676;DHT22;10999;51.332;9.458;2023-04-25T07:52:07;8.80;70.80
21676;DHT22;10999;51.332;9.458;2023-04-25T07:54:34;8.90;67.80
21676;DHT22;10999;51.332;9.458;2023-04-25T07:57:01;9.00;68.20
21676;DHT22;10999;51.332;9.458;2023-04-25T07:59:28;9.10;66.50
21676;DHT22;10999;51.332;9.458;2023-04-25T08:01:56;9.40;63.80
21676;DHT22;10999;51.332;9.458;2023-04-25T08:04:24;9.70;61.80
21676;DHT22;10999;51.332;9.458;2023-04-25T08:06:52;9.60;56.80
21676;DHT22;10999;51.332;9.458;2023-04-25T08:09:20;9.50;56.50
21676;DHT22;10999;51.332;9.458;2023-04-25T08:11:47;9.40;55.00
21676;DHT22;10999;51.332;9.458;2023-04-25T08:14:14;9.30;53.30
21676;DHT22;10999;51.332;9.458;2023-04-25T08:16:41;9.20;53.40
21676;DHT22;10999;51.332;9.458;2023-04-25T08:19:08;9.20;53.60
21676;DHT22;10999;51.332;9.458;2023-04-25T08:21:35;9.00;54.40
21676;DHT22;10999;51.332;9.458;2023-04-25T08:24:02;8.80;52.30
21676;DHT22;10999;51.332;9.458;2023-04-25T08:26:29;8.70;54.50
21676;DHT22;10999;51.332;9.458;2023-04-25T08:28:56;8.60;52.10
21676;DHT22;10999;51.332;9.458;2023-04-25T08:31:23;8.50;55.00
21676;DHT22;10999;51.332;9.458;2023-04-25T08:33:50;8.40;56.70
21676;DHT22;10999;51.332;9.458;2023-04-25T08:36:18;8.40;55.70
21676;DHT22;10999;51.332;9.458;2023-04-25T08:39:04;8.30;53.60
21676;DHT22;10999;51.332;9.458;2023-04-25T08:41:31;8.30;51.60
21676;DHT22;10999;51.332;9.458;2023-04-25T08:43:58;8.30;52.20
21676;DHT22;10999;51.332;9.458;2023-04-25T08:46:27;8.20;52.20
21676;DHT22;10999;51.332;9.458;2023-04-25T08:48:59;8.30;51.80
21676;DHT22;10999;51.332;9.458;2023-04-25T08:51:27;8.40;54.50
21676;DHT22;10999;51.332;9.458;2023-04-25T08:54:08;8.60;52.00
21676;DHT22;10999;51.332;9.458;2023-04-25T08:56:56;8.80;51.90
21676;DHT22;10999;51.332;9.458;2023-04-25T08:59:24;9.20;54.10
21676;DHT22;10999;51.332;9.458;2023-04-25T09:01:51;9.60;52.90
21676;DHT22;10999;51.332;9.458;2023-04-25T09:04:18;10.00;49.90
21676;DHT22;10999;51.332;9.458;2023-04-25T09:06:47;10.20;40.30
21676;DHT22;10999;51.332;9.458;2023-04-25T09:09:14;10.20;37.00
21676;DHT22;10999;51.332;9.458;2023-04-25T09:11:41;10.20;37.90
21676;DHT22;10999;51.332;9.458;2023-04-25T09:14:16;10.30;37.90
21676;DHT22;10999;51.332;9.458;2023-04-25T09:17:13;10.40;38.40
21676;DHT22;10999;51.332;9.458;2023-04-25T09:19:39;10.50;38.10
21676;DHT22;10999;51.332;9.458;2023-04-25T09:22:08;10.40;38.00
21676;DHT22;10999;51.332;9.458;2023-04-25T09:24:40;10.50;39.60
21676;DHT22;10999;51.332;9.458;2023-04-25T09:27:09;10.30;38.80
21676;DHT22;10999;51.332;9.458;2023-04-25T09:29:38;10.10;39.00
21676;DHT22;10999;51.332;9.458;2023-04-25T09:32:12;9.90;40.80
21676;DHT22;10999;51.332;9.458;2023-04-25T09:34:43;9.70;40.80
21676;DHT22;10999;51.332;9.458;2023-04-25T09:37:11;9.70;42.90
21676;DHT22;10999;51.332;9.458;2023-04-25T09:39:38;9.40;39.90
21676;DHT22;10999;51.332;9.458;2023-04-25T09:42:05;9.30;36.20
21676;DHT22;10999;51.332;9.458;2023-04-25T09:44:32;9.20;37.60
21676;DHT22;10999;51.332;9.458;2023-04-25T09:46:59;9.10;39.50
21676;DHT22;10999;51.332;9.458;2023-04-25T09:49:26;9.00;39.90
21676;DHT22;10999;51.332;9.458;2023-04-25T09:51:58;8.90;39.70
21676;DHT22;10999;51.332;9.458;2023-04-25T09:54:25;8.90;39.70
21676;DHT22;10999;51.332;9.458;2023-04-25T09:56:53;8.90;39.60
21676;DHT22;10999;51.332;9.458;2023-04-25T09:59:21;9.00;38.40
21676;DHT22;10999;51.332;9.458;2023-04-25T10:01:49;9.00;38.70
21676;DHT22;10999;51.332;9.458;2023-04-25T10:04:24;9.00;37.50
21676;DHT22;10999;51.332;9.458;2023-04-25T10:06:53;9.10;38.10
21676;DHT22;10999;51.332;9.458;2023-04-25T10:09:23;9.10;39.40
21676;DHT22;10999;51.332;9.458;2023-04-25T10:11:52;9.20;35.20
21676;DHT22;10999;51.332;9.458;2023-04-25T10:14:19;9.20;33.80
21676;DHT22;10999;51.332;9.458;2023-04-25T10:16:47;9.20;34.30
21676;DHT22;10999;51.332;9.458;2023-04-25T10:19:14;9.40;33.50
21676;DHT22;10999;51.332;9.458;2023-04-25T10:24:43;9.90;33.20
21676;DHT22;10999;51.332;9.458;2023-04-25T10:27:10;10.00;31.10
21676;DHT22;10999;51.332;9.458;2023-04-25T10:29:37;9.90;26.30
21676;DHT22;10999;51.332;9.458;2023-04-25T10:32:04;9.70;26.60
21676;DHT22;10999;51.332;9.458;2023-04-25T10:37:09;9.60;29.60
21676;DHT22;10999;51.332;9.458;2023-04-25T10:39:36;9.40;28.70
21676;DHT22;10999;51.332;9.458;2023-04-25T10:42:04;9.40;28.10
21676;DHT22;10999;51.332;9.458;2023-04-25T10:44:32;9.40;30.10
21676;DHT22;10999;51.332;9.458;2023-04-25T10:47:00;9.40;33.30
21676;DHT22;10999;51.332;9.458;2023-04-25T10:49:35;9.40;32.70
21676;DHT22;10999;51.332;9.458;2023-04-25T10:52:38;9.40;32.80
21676;DHT22;10999;51.332;9.458;2023-04-25T10:55:05;9.40;31.80
21676;DHT22;10999;51.332;9.458;2023-04-25T10:57:50;9.40;31.20
21676;DHT22;10999;51.332;9.458;2023-04-25T11:00:19;9.40;26.90
21676;DHT22;10999;51.332;9.458;2023-04-25T11:02:58;9.40;27.50
21676;DHT22;10999;51.332;9.458;2023-04-25T11:05:32;9.40;27.60
21676;DHT22;10999;51.332;9.458;2023-04-25T11:08:11;9.50;27.10
21676;DHT22;10999;51.332;9.458;2023-04-25T11:10:40;9.70;27.60
21676;DHT22;10999;51.332;9.458;2023-04-25T11:13:06;9.90;29.70
21676;DHT22;10999;51.332;9.458;2023-04-25T11:15:33;10.00;25.90
21676;DHT22;10999;51.332;9.458;2023-04-25T11:18:00;10.20;25.40
21676;DHT22;10999;51.332;9.458;2023-04-25T11:20:27;10.20;22.30
21676;DHT22;10999;51.332;9.458;2023-04-25T11:22:58;10.20;22.60
21676;DHT22;10999;51.332;9.458;2023-04-25T11:25:26;10.00;20.00
21676;DHT22;10999;51.332;9.458;2023-04-25T11:27:57;9.80;21.30
21676;DHT22;10999;51.332;9.458;2023-04-25T11:30:26;9.70;22.90
21676;DHT22;10999;51.332;9.458;2023-04-25T11:32:53;9.60;23.00
21676;DHT22;10999;51.332;9.458;2023-04-25T11:35:19;9.50;23.70
21676;DHT22;10999;51.332;9.458;2023-04-25T11:37:47;9.50;24.10
21676;DHT22;10999;51.332;9.458;2023-04-25T11:40:14;9.40;24.10
21676;DHT22;10999;51.332;9.458;2023-04-25T11:42:45;9.40;26.60
21676;DHT22;10999;51.332;9.458;2023-04-25T11:45:14;9.50;28.70
21676;DHT22;10999;51.332;9.458;2023-04-25T11:47:41;9.60;27.20
21676;DHT22;10999;51.332;9.458;2023-04-25T11:50:08;9.70;24.30
21676;DHT22;10999;51.332;9.458;2023-04-25T11:52:39;9.80;23.10
21676;DHT22;10999;51.332;9.458;2023-04-25T11:55:15;9.90;22.20
21676;DHT22;10999;51.332;9.458;2023-04-25T11:57:44;9.80;21.00
21676;DHT22;10999;51.332;9.458;2023-04-25T12:00:15;9.90;20.90
21676;DHT22;10999;51.332;9.458;2023-04-25T12:02:46;10.10;21.40
21676;DHT22;10999;51.332;9.458;2023-04-25T12:05:15;10.30;23.60
21676;DHT22;10999;51.332;9.458;2023-04-25T12:07:58;10.40;21.90
21676;DHT22;10999;51.332;9.458;2023-04-25T12:10:25;10.50;21.70
21676;DHT22;10999;51.332;9.458;2023-04-25T12:12:52;10.30;19.60
21676;DHT22;10999;51.332;9.458;2023-04-25T12:15:24;10.20;21.10
21676;DHT22;10999;51.332;9.458;2023-04-25T12:17:53;10.20;20.70
21676;DHT22;10999;51.332;9.458;2023-04-25T12:20:24;10.40;22.80
21676;DHT22;10999;51.332;9.458;2023-04-25T12:22:51;10.70;21.50
21676;DHT22;10999;51.332;9.458;2023-04-25T12:25:39;11.10;19.90
21676;DHT22;10999;51.332;9.458;2023-04-25T12:31:03;11.20;18.60
21676;DHT22;10999;51.332;9.458;2023-04-25T12:33:36;10.90;17.30
21676;DHT22;10999;51.332;9.458;2023-04-25T12:36:04;10.60;18.80
21676;DHT22;10999;51.332;9.458;2023-04-25T12:38:40;10.40;19.70
21676;DHT22;10999;51.332;9.458;2023-04-25T12:41:08;10.30;21.40
21676;DHT22;10999;51.332;9.458;2023-04-25T12:43:35;10.00;20.40
21676;DHT22;10999;51.332;9.458;2023-04-25T12:46:02;9.70;21.70
21676;DHT22;10999;51.332;9.458;2023-04-25T12:48:28;9.60;22.40
21676;DHT22;10999;51.332;9.458;2023-04-25T12:50:55;9.60;24.10
21676;DHT22;10999;51.332;9.458;2023-04-25T12:53:23;9.50;25.20
21676;DHT22;10999;51.332;9.458;2023-04-25T12:55:58;9.40;26.50
21676;DHT22;10999;51.332;9.458;2023-04-25T12:58:43;9.40;25.70
21676;DHT22;10999;51.332;9.458;2023-04-25T13:01:37;9.30;26.70
21676;DHT22;10999;51.332;9.458;2023-04-25T13:04:04;9.30;27.50
21676;DHT22;10999;51.332;9.458;2023-04-25T13:06:31;9.40;25.80
21676;DHT22;10999;51.332;9.458;2023-04-25T13:08:58;9.40;26.70
21676;DHT22;10999;51.332;9.458;2023-04-25T13:11:25;9.50;25.80
21676;DHT22;10999;51.332;9.458;2023-04-25T13:13:52;9.60;26.70
21676;DHT22;10999;51.332;9.458;2023-04-25T13:16:20;9.80;25.10
21676;DHT22;10999;51.332;9.458;2023-04-25T13:18:50;9.80;26.30
21676;DHT22;10999;51.332;9.458;2023-04-25T13:21:16;9.90;22.40
21676;DHT22;10999;51.332;9.458;2023-04-25T13:23:43;9.80;20.40
21676;DHT22;10999;51.332;9.458;2023-04-25T13:26:13;10.00;21.40
21676;DHT22;10999;51.332;9.458;2023-04-25T13:28:39;10.40;21.00
21676;DHT22;10999;51.332;9.458;2023-04-25T13:31:10;10.70;19.10
21676;DHT22;10999;51.332;9.458;2023-04-25T13:33:37;10.90;19.40
21676;DHT22;10999;51.332;9.458;2023-04-25T13:36:04;10.90;18.50
21676;DHT22;10999;51.332;9.458;2023-04-25T13:38:32;10.70;19.80
21676;DHT22;10999;51.332;9.458;2023-04-25T13:40:58;10.50;19.70
21676;DHT22;10999;51.332;9.458;2023-04-25T13:43:25;10.30;21.50
21676;DHT22;10999;51.332;9.458;2023-04-25T13:45:52;10.10;24.40
21676;DHT22;10999;51.332;9.458;2023-04-25T13:48:19;9.90;25.70
21676;DHT22;10999;51.332;9.458;2023-04-25T13:50:46;9.70;26.00
21676;DHT22;10999;51.332;9.458;2023-04-25T13:53:13;9.60;28.20
21676;DHT22;10999;51.332;9.458;2023-04-25T13:55:40;9.40;27.70
21676;DHT22;10999;51.332;9.458;2023-04-25T13:58:07;9.30;29.10
21676;DHT22;10999;51.332;9.458;2023-04-25T14:00:38;9.20;29.00
21676;DHT22;10999;51.332;9.458;2023-04-25T14:03:06;9.20;31.00
21676;DHT22;10999;51.332;9.458;2023-04-25T14:05:35;9.30;29.40
21676;DHT22;10999;51.332;9.458;2023-04-25T14:08:06;9.30;28.00
21676;DHT22;10999;51.332;9.458;2023-04-25T14:10:34;9.40;28.10
21676;DHT22;10999;51.332;9.458;2023-04-25T14:13:01;9.40;27.50
21676;DHT22;10999;51.332;9.458;2023-04-25T14:15:33;9.50;26.30
21676;DHT22;10999;51.332;9.458;2023-04-25T14:18:01;9.40;26.00
21676;DHT22;10999;51.332;9.458;2023-04-25T14:20:28;9.40;27.00
21676;DHT22;10999;51.332;9.458;2023-04-25T14:22:56;9.40;27.20
21676;DHT22;10999;51.332;9.458;2023-04-25T14:25:24;9.40;28.60
21676;DHT22;10999;51.332;9.458;2023-04-25T14:27:52;9.60;28.30
21676;DHT22;10999;51.332;9.458;2023-04-25T14:30:19;9.70;29.80
21676;DHT22;10999;51.332;9.458;2023-04-25T14:32:48;9.80;29.20
21676;DHT22;10999;51.332;9.458;2023-04-25T14:35:16;9.80;27.10
21676;DHT22;10999;51.332;9.458;2023-04-25T14:37:42;9.90;28.20
21676;DHT22;10999;51.332;9.458;2023-04-25T14:40:09;10.20;29.60
21676;DHT22;10999;51.332;9.458;2023-04-25T14:42:37;10.60;26.60
21676;DHT22;10999;51.332;9.458;2023-04-25T14:45:05;10.80;21.30
21676;DHT22;10999;51.332;9.458;2023-04-25T14:47:34;11.00;21.30
21676;DHT22;10999;51.332;9.458;2023-04-25T14:50:03;11.00;21.50
21676;DHT22;10999;51.332;9.458;2023-04-25T14:52:31;11.10;20.90
21676;DHT22;10999;51.332;9.458;2023-04-25T14:54:57;11.10;20.10
21676;DHT22;10999;51.332;9.458;2023-04-25T14:57:34;11.00;21.30
21676;DHT22;10999;51.332;9.458;2023-04-25T15:00:03;11.00;21.80
21676;DHT22;10999;51.332;9.458;2023-04-25T15:02:34;10.80;22.10
21676;DHT22;10999;51.332;9.458;2023-04-25T15:05:01;10.80;23.40
21676;DHT22;10999;51.332;9.458;2023-04-25T15:07:29;10.60;22.40
21676;DHT22;10999;51.332;9.458;2023-04-25T15:09:57;10.50;24.60
21676;DHT22;10999;51.332;9.458;2023-04-25T15:12:25;10.30;23.20
21676;DHT22;10999;51.332;9.458;2023-04-25T15:14:54;10.10;24.50
21676;DHT22;10999;51.332;9.458;2023-04-25T15:17:22;9.90;26.20
21676;DHT22;10999;51.332;9.458;2023-04-25T15:19:48;9.90;25.40
21676;DHT22;10999;51.332;9.458;2023-04-25T15:22:15;10.00;28.10
21676;DHT22;10999;51.332;9.458;2023-04-25T15:24:42;10.10;27.00
21676;DHT22;10999;51.332;9.458;2023-04-25T15:27:09;10.10;27.30
21676;DHT22;10999;51.332;9.458;2023-04-25T15:29:37;10.00;28.60
21676;DHT22;10999;51.332;9.458;2023-04-25T15:32:04;9.90;31.50
21676;DHT22;10999;51.332;9.458;2023-04-25T15:34:30;9.80;32.20
21676;DHT22;10999;51.332;9.458;2023-04-25T15:36:59;9.60;32.40
21676;DHT22;10999;51.332;9.458;2023-04-25T15:39:25;9.50;31.30
21676;DHT22;10999;51.332;9.458;2023-04-25T15:41:52;9.30;31.10
21676;DHT22;10999;51.332;9.458;2023-04-25T15:44:19;9.30;32.00
21676;DHT22;10999;51.332;9.458;2023-04-25T15:46:46;9.20;31.80
21676;DHT22;10999;51.332;9.458;2023-04-25T15:49:12;9.20;32.20
21676;DHT22;10999;51.332;9.458;2023-04-25T15:51:39;9.10;30.90
21676;DHT22;10999;51.332;9.458;2023-04-25T15:54:06;9.20;31.00
21676;DHT22;10999;51.332;9.458;2023-04-25T15:56:33;9.30;32.10